createdAt,value
2018-01-31T01:53:10.079Z,8.70
2018-01-31T01:55:37.802Z,8.80
2018-01-31T01:58:05.344Z,8.80
2018-01-31T02:00:32.886Z,8.80
2018-01-31T02:03:00.430Z,8.70
2018-01-31T02:05:28.039Z,8.70
2018-01-31T02:07:55.586Z,8.70
2018-01-31T02:10:23.106Z,8.70
2018-01-31T02:12:50.666Z,8.70
2018-01-31T02:15:18.256Z,8.70
2018-01-31T02:17:45.800Z,8.60
2018-01-31T02:20:14.145Z,8.60
2018-01-31T02:22:41.687Z,8.60
2018-01-31T02:25:09.981Z,8.60
2018-01-31T02:27:37.513Z,8.60
2018-01-31T02:30:05.080Z,8.70
2018-01-31T02:32:32.638Z,8.60
2018-01-31T02:35:00.165Z,8.60
2018-01-31T02:37:28.325Z,8.60
2018-01-31T02:39:58.052Z,8.60
2018-01-31T02:42:25.585Z,8.60
2018-01-31T02:44:53.123Z,8.50
2018-01-31T02:47:20.643Z,8.60
2018-01-31T02:49:48.216Z,8.60
2018-01-31T02:52:15.741Z,8.70
2018-01-31T02:54:43.266Z,8.60
2018-01-31T02:57:10.793Z,8.50
2018-01-31T02:59:38.311Z,8.60
2018-01-31T03:02:06.627Z,8.60
2018-01-31T03:04:34.207Z,8.60
2018-01-31T03:07:01.755Z,8.60
2018-01-31T03:09:29.287Z,8.60
2018-01-31T03:11:56.835Z,8.60
2018-01-31T03:14:24.378Z,8.60
2018-01-31T03:16:51.898Z,8.60
2018-01-31T03:19:19.525Z,8.60
2018-01-31T03:21:47.054Z,8.60
2018-01-31T03:24:14.568Z,8.60
2018-01-31T03:26:42.106Z,8.60
2018-01-31T03:29:09.618Z,8.70
2018-01-31T03:31:37.138Z,8.60
2018-01-31T03:34:05.453Z,8.60
2018-01-31T03:36:33.000Z,8.60
2018-01-31T03:39:00.556Z,8.40
2018-01-31T03:41:28.377Z,8.60
2018-01-31T03:43:57.821Z,8.60
2018-01-31T03:46:25.384Z,8.60
2018-01-31T03:48:52.996Z,8.60
2018-01-31T03:51:20.572Z,8.60
2018-01-31T03:53:48.877Z,8.70
2018-01-31T03:56:16.472Z,8.70
2018-01-31T03:58:44.826Z,8.60
2018-01-31T04:01:12.367Z,8.60
2018-01-31T04:03:39.878Z,8.60
2018-01-31T04:06:07.601Z,8.70
2018-01-31T04:08:35.905Z,8.60
2018-01-31T04:11:04.207Z,8.60
2018-01-31T04:13:32.513Z,8.60
2018-01-31T04:16:00.027Z,8.60
2018-01-31T04:18:27.737Z,8.50
2018-01-31T04:20:56.052Z,8.50
2018-01-31T04:23:24.352Z,8.50
2018-01-31T04:25:51.874Z,8.50
2018-01-31T04:28:19.617Z,8.50
2018-01-31T04:30:47.144Z,8.50
2018-01-31T04:33:14.699Z,8.50
2018-01-31T04:35:42.234Z,8.50
2018-01-31T04:38:09.765Z,8.50
2018-01-31T04:40:37.290Z,8.50
2018-01-31T04:43:04.842Z,8.50
2018-01-31T04:45:33.134Z,8.50
2018-01-31T04:48:01.455Z,8.50
2018-01-31T04:50:28.991Z,8.50
2018-01-31T04:52:57.489Z,8.40
2018-01-31T04:55:25.797Z,8.40
2018-01-31T04:57:54.129Z,8.40
2018-01-31T05:00:21.671Z,8.40
2018-01-31T05:02:49.454Z,8.30
2018-01-31T05:05:17.768Z,8.30
2018-01-31T05:07:45.319Z,8.30
2018-01-31T05:10:12.844Z,8.30
2018-01-31T05:12:40.412Z,8.30
2018-01-31T05:15:08.733Z,8.30
2018-01-31T05:17:36.284Z,8.30
2018-01-31T05:20:03.805Z,8.30
2018-01-31T05:22:31.344Z,8.40
2018-01-31T05:24:59.300Z,8.40
2018-01-31T05:27:28.088Z,8.40
2018-01-31T05:29:55.611Z,8.50
2018-01-31T05:32:23.898Z,8.40
2018-01-31T05:34:52.178Z,8.40
2018-01-31T05:37:19.906Z,8.40
2018-01-31T05:39:47.437Z,8.40
2018-01-31T05:42:15.108Z,8.30
2018-01-31T05:44:43.415Z,8.40
2018-01-31T05:47:10.943Z,8.40
2018-01-31T05:49:38.469Z,8.40
2018-01-31T05:52:06.062Z,8.40
2018-01-31T05:54:34.417Z,8.50
2018-01-31T05:57:02.703Z,8.50
2018-01-31T05:59:30.244Z,8.50
2018-01-31T06:01:57.803Z,8.50
2018-01-31T06:04:25.314Z,8.50
2018-01-31T06:06:52.878Z,8.40
2018-01-31T06:09:21.267Z,8.50
2018-01-31T06:11:49.170Z,8.40
2018-01-31T06:14:17.666Z,8.50
2018-01-31T06:16:51.707Z,8.40
2018-01-31T06:19:19.521Z,8.40
2018-01-31T06:21:47.079Z,8.40
2018-01-31T06:24:14.613Z,8.40
2018-01-31T06:26:42.199Z,8.30
2018-01-31T06:29:09.762Z,8.30
2018-01-31T06:31:38.170Z,8.30
2018-01-31T06:34:06.639Z,8.30
2018-01-31T06:36:35.609Z,8.20
2018-01-31T06:39:03.936Z,8.20
2018-01-31T06:41:32.236Z,8.20
2018-01-31T06:43:59.768Z,8.20
2018-01-31T06:46:27.389Z,8.30
2018-01-31T06:48:54.939Z,8.30
2018-01-31T06:51:22.495Z,8.30
2018-01-31T06:53:50.245Z,8.30
2018-01-31T06:56:17.913Z,8.30
2018-01-31T06:58:46.223Z,8.30
2018-01-31T07:01:13.793Z,8.30
2018-01-31T07:03:41.338Z,8.20
2018-01-31T07:06:08.912Z,8.30
2018-01-31T07:08:37.260Z,8.20
2018-01-31T07:11:05.880Z,8.20
2018-01-31T07:13:33.487Z,8.20
2018-01-31T07:16:01.027Z,8.20
2018-01-31T07:18:28.606Z,8.20
2018-01-31T07:20:56.157Z,8.20
2018-01-31T07:23:23.718Z,8.10
2018-01-31T07:25:51.257Z,8.10
2018-01-31T07:28:18.802Z,8.00
2018-01-31T07:30:46.494Z,8.00
2018-01-31T07:33:14.879Z,7.90
2018-01-31T07:35:42.452Z,7.90
2018-01-31T07:38:09.944Z,7.90
2018-01-31T07:40:37.430Z,7.70
2018-01-31T07:43:06.612Z,8.50
2018-01-31T07:45:34.201Z,8.50
2018-01-31T07:48:01.691Z,9.30
2018-01-31T07:50:29.213Z,10.00
2018-01-31T07:52:56.765Z,10.70
2018-01-31T07:55:24.237Z,11.50
2018-01-31T07:57:52.512Z,11.90
2018-01-31T08:00:20.187Z,11.90
2018-01-31T08:02:47.688Z,12.20
2018-01-31T08:05:15.241Z,12.70
2018-01-31T08:07:42.741Z,12.70
2018-01-31T08:10:10.332Z,12.60
2018-01-31T08:12:37.806Z,12.50
2018-01-31T08:15:05.525Z,12.60
2018-01-31T08:17:33.020Z,12.50
2018-01-31T08:20:00.500Z,12.40
2018-01-31T08:22:28.322Z,12.30
2018-01-31T08:24:55.824Z,12.80
2018-01-31T08:27:23.316Z,13.10
2018-01-31T08:29:50.834Z,13.50
2018-01-31T08:32:18.541Z,13.70
2018-01-31T08:34:45.994Z,13.90
2018-01-31T08:37:14.284Z,14.30
2018-01-31T08:39:42.535Z,14.50
2018-01-31T08:42:10.019Z,14.50
2018-01-31T08:44:37.502Z,14.40
2018-01-31T08:47:05.221Z,14.40
2018-01-31T08:49:32.691Z,14.30
2018-01-31T08:52:00.200Z,14.30
2018-01-31T08:54:27.679Z,14.20
2018-01-31T08:56:55.384Z,14.30
2018-01-31T08:59:22.913Z,14.20
2018-01-31T09:01:50.577Z,14.10
2018-01-31T09:04:18.914Z,14.60
2018-01-31T09:06:46.783Z,14.60
2018-01-31T09:09:14.469Z,15.00
2018-01-31T09:11:41.978Z,15.10
2018-01-31T09:14:09.471Z,15.30
2018-01-31T09:16:37.732Z,15.60
2018-01-31T09:19:06.434Z,15.60
2018-01-31T09:21:33.998Z,15.50
2018-01-31T09:24:02.267Z,15.00
2018-01-31T09:26:29.761Z,15.00
2018-01-31T09:28:57.267Z,14.40
2018-01-31T09:31:24.786Z,14.10
2018-01-31T09:33:52.287Z,14.10
2018-01-31T09:36:19.820Z,14.20
2018-01-31T09:38:47.297Z,14.40
2018-01-31T09:41:15.541Z,14.50
2018-01-31T09:43:43.008Z,14.40
2018-01-31T09:46:10.496Z,14.30
2018-01-31T09:48:37.996Z,14.20
2018-01-31T09:51:05.607Z,14.00
2018-01-31T09:53:33.143Z,13.80
2018-01-31T09:56:01.348Z,13.40
2018-01-31T09:58:29.590Z,13.40
2018-01-31T10:00:57.924Z,13.60
2018-01-31T10:03:26.189Z,13.70
2018-01-31T10:05:54.470Z,13.60
2018-01-31T10:08:22.832Z,13.80
2018-01-31T10:10:51.193Z,13.60
2018-01-31T10:13:18.903Z,13.60
2018-01-31T10:15:46.402Z,13.80
2018-01-31T10:18:14.846Z,14.50
2018-01-31T10:20:43.092Z,14.50
2018-01-31T10:23:10.582Z,14.50
2018-01-31T10:25:39.280Z,14.40
2018-01-31T10:28:07.629Z,14.60
2018-01-31T10:30:35.128Z,14.50
2018-01-31T10:33:02.639Z,15.10
2018-01-31T10:35:30.936Z,15.70
2018-01-31T10:37:58.523Z,15.60
2018-01-31T10:40:26.006Z,15.70
2018-01-31T10:42:53.518Z,15.70
2018-01-31T10:45:21.773Z,15.60
2018-01-31T10:47:49.394Z,15.50
2018-01-31T10:50:16.906Z,15.60
2018-01-31T10:52:44.388Z,15.70
2018-01-31T10:57:28.683Z,15.80
2018-01-31T10:57:39.417Z,16.30
2018-01-31T11:00:07.777Z,17.00
2018-01-31T11:02:35.278Z,17.00
2018-01-31T11:05:02.759Z,17.40
2018-01-31T11:07:31.174Z,17.60
2018-01-31T11:09:59.362Z,17.20
2018-01-31T11:12:26.913Z,16.50
2018-01-31T11:14:55.216Z,15.50
2018-01-31T11:17:23.463Z,15.50
2018-01-31T11:19:50.987Z,15.50
2018-01-31T11:22:18.576Z,15.60
2018-01-31T11:24:46.878Z,16.10
2018-01-31T11:27:14.570Z,16.10
2018-01-31T11:29:42.846Z,16.40
2018-01-31T11:32:10.325Z,16.40
2018-01-31T11:34:38.317Z,16.90
2018-01-31T11:37:05.791Z,17.30
2018-01-31T11:39:33.273Z,17.20
2018-01-31T11:42:01.538Z,16.50
2018-01-31T11:44:29.338Z,16.50
2018-01-31T11:46:57.599Z,15.90
2018-01-31T11:49:25.110Z,15.90
2018-01-31T11:51:52.595Z,15.40
2018-01-31T11:54:20.137Z,15.20
2018-01-31T11:56:47.662Z,14.90
2018-01-31T11:59:15.259Z,14.60
2018-01-31T12:01:42.736Z,14.40
2018-01-31T12:04:10.979Z,14.10
2018-01-31T12:06:38.517Z,14.10
2018-01-31T12:09:18.653Z,14.00
2018-01-31T12:11:49.472Z,13.90
2018-01-31T12:17:12.308Z,13.80
2018-01-31T12:20:06.399Z,13.70
2018-01-31T12:22:45.554Z,13.80
2018-01-31T12:25:24.785Z,13.80
2018-01-31T12:31:04.817Z,13.50
2018-01-31T12:33:44.973Z,13.60
2018-01-31T12:36:24.289Z,13.60
2018-01-31T12:38:59.955Z,13.70
2018-01-31T12:41:26.944Z,13.60
2018-01-31T12:43:53.955Z,13.60
2018-01-31T12:49:49.524Z,13.30
2018-01-31T12:52:30.604Z,13.30
2018-01-31T12:58:12.393Z,13.00
2018-01-31T13:03:50.888Z,13.00
2018-01-31T13:06:30.410Z,13.20
2018-01-31T13:09:10.103Z,13.40
2018-01-31T13:11:49.587Z,13.60
2018-01-31T13:14:29.240Z,13.70
2018-01-31T13:17:09.254Z,14.00
2018-01-31T13:19:48.483Z,14.00
2018-01-31T13:22:28.662Z,14.00
2018-01-31T13:25:07.631Z,14.10
2018-01-31T13:27:52.586Z,14.00
2018-01-31T13:30:31.930Z,14.00
2018-01-31T13:33:16.954Z,14.00
2018-01-31T13:35:57.168Z,13.90
2018-01-31T13:38:36.311Z,13.90
2018-01-31T13:41:16.363Z,14.00
2018-01-31T13:43:55.608Z,14.00
2018-01-31T13:46:34.820Z,14.00
2018-01-31T13:49:14.886Z,14.00
2018-01-31T13:51:55.056Z,13.90
2018-01-31T13:54:34.279Z,13.90
2018-01-31T13:57:13.481Z,13.90
2018-01-31T13:59:52.807Z,13.80
2018-01-31T14:02:32.758Z,13.80
2018-01-31T14:05:12.977Z,13.60
2018-01-31T14:07:52.199Z,13.60
2018-01-31T14:10:31.714Z,13.50
2018-01-31T14:13:10.914Z,13.50
2018-01-31T14:15:51.106Z,13.60
2018-01-31T14:18:30.458Z,13.50
2018-01-31T14:24:14.397Z,13.70
2018-01-31T14:26:53.667Z,13.90
2018-01-31T14:29:32.842Z,13.90
2018-01-31T14:32:12.914Z,14.10
2018-01-31T14:34:52.889Z,14.10
2018-01-31T14:37:19.870Z,14.00
2018-01-31T14:39:47.776Z,14.10
2018-01-31T14:42:14.876Z,14.10
2018-01-31T14:44:41.935Z,14.30
2018-01-31T14:47:09.781Z,13.90
2018-01-31T14:49:36.780Z,14.10
2018-01-31T14:52:03.774Z,14.10
2018-01-31T14:54:30.793Z,14.20
2018-01-31T14:56:57.807Z,14.30
2018-01-31T14:59:24.818Z,14.30
2018-01-31T15:01:51.880Z,14.30
2018-01-31T15:04:18.871Z,14.30
2018-01-31T15:06:46.049Z,14.20
2018-01-31T15:09:13.863Z,14.10
2018-01-31T15:11:41.639Z,14.10
2018-01-31T15:14:09.421Z,14.00
2018-01-31T15:16:37.234Z,13.90
2018-01-31T15:19:04.996Z,13.90
2018-01-31T15:21:32.040Z,13.90
2018-01-31T15:23:59.026Z,13.80
2018-01-31T15:26:26.057Z,13.70
2018-01-31T15:28:53.045Z,13.60
2018-01-31T15:31:20.037Z,13.60
2018-01-31T15:33:47.005Z,13.40
2018-01-31T15:36:14.116Z,13.40
2018-01-31T15:38:41.135Z,13.30
2018-01-31T15:41:08.150Z,13.20
2018-01-31T15:43:35.296Z,13.20
2018-01-31T15:46:03.089Z,13.10
2018-01-31T15:48:30.928Z,13.10
2018-01-31T15:50:58.671Z,13.00
2018-01-31T15:53:25.821Z,13.00
2018-01-31T15:55:52.900Z,12.90
2018-01-31T15:58:19.888Z,12.90
2018-01-31T16:00:50.546Z,12.80
2018-01-31T16:03:17.767Z,12.80
2018-01-31T16:05:45.903Z,12.60
2018-01-31T16:08:12.893Z,12.60
2018-01-31T16:10:39.909Z,12.50
2018-01-31T16:13:07.727Z,12.40
2018-01-31T16:15:34.811Z,12.40
2018-01-31T16:18:02.270Z,12.10
2018-01-31T16:20:41.547Z,12.30
2018-01-31T16:23:09.018Z,12.30
2018-01-31T16:25:36.606Z,12.30
2018-01-31T16:28:15.854Z,12.30
2018-01-31T16:30:46.907Z,12.30
2018-01-31T16:33:26.031Z,12.30
2018-01-31T16:35:53.513Z,12.30
2018-01-31T16:38:21.051Z,12.30
2018-01-31T16:40:48.830Z,12.30
2018-01-31T16:43:17.097Z,12.40
2018-01-31T16:45:44.623Z,12.40
2018-01-31T16:48:12.867Z,12.40
2018-01-31T16:50:40.469Z,12.40
2018-01-31T16:53:09.219Z,12.40
2018-01-31T16:55:36.756Z,12.40
2018-01-31T16:58:04.993Z,12.30
2018-01-31T17:00:32.556Z,12.40
2018-01-31T17:03:00.081Z,12.30
2018-01-31T17:05:27.551Z,12.20
2018-01-31T17:07:55.132Z,12.20
2018-01-31T17:10:22.593Z,12.10
2018-01-31T17:12:50.131Z,12.10
2018-01-31T17:15:18.212Z,12.20
2018-01-31T17:17:45.802Z,12.10
2018-01-31T17:20:13.363Z,12.20
2018-01-31T17:22:41.965Z,12.20
2018-01-31T17:25:17.190Z,12.20
2018-01-31T17:27:45.861Z,12.20
2018-01-31T17:30:13.405Z,12.20
2018-01-31T17:32:40.883Z,12.20
2018-01-31T17:35:08.384Z,12.10
2018-01-31T17:37:35.857Z,12.10
2018-01-31T17:40:03.463Z,12.10
2018-01-31T17:42:30.943Z,12.00
2018-01-31T17:44:58.426Z,12.00
2018-01-31T17:47:26.184Z,12.10
2018-01-31T17:49:53.651Z,12.10
2018-01-31T17:52:21.132Z,12.20
2018-01-31T17:54:48.772Z,12.20
2018-01-31T17:57:16.283Z,12.20
2018-01-31T17:59:43.776Z,12.20
2018-01-31T18:02:11.251Z,12.20
2018-01-31T18:04:38.836Z,12.30
2018-01-31T18:07:06.303Z,12.30
2018-01-31T18:09:33.785Z,12.30
2018-01-31T18:12:01.259Z,12.30
2018-01-31T18:14:28.793Z,12.40
2018-01-31T18:16:56.268Z,12.40
2018-01-31T18:19:23.756Z,12.40
2018-01-31T18:21:51.306Z,12.40
2018-01-31T18:24:18.875Z,12.40
2018-01-31T18:26:46.344Z,12.40
2018-01-31T18:29:13.836Z,12.50
2018-01-31T18:31:41.342Z,12.50
2018-01-31T18:34:08.831Z,12.40
2018-01-31T18:36:36.365Z,12.40
2018-01-31T18:39:04.601Z,12.40
2018-01-31T18:41:32.198Z,12.40
2018-01-31T18:43:59.770Z,12.30
2018-01-31T18:46:27.344Z,12.30
2018-01-31T18:48:54.950Z,12.40
2018-01-31T18:51:22.437Z,12.40
2018-01-31T18:53:49.905Z,12.30
2018-01-31T18:56:17.405Z,12.30
2018-01-31T18:58:44.926Z,12.40
2018-01-31T19:01:13.147Z,12.40
2018-01-31T19:03:41.457Z,12.30
2018-01-31T19:06:08.982Z,12.30
2018-01-31T19:08:36.624Z,12.30
2018-01-31T19:11:04.328Z,12.30
2018-01-31T19:13:32.667Z,12.30
2018-01-31T19:16:00.184Z,12.30
2018-01-31T19:18:27.704Z,12.30
2018-01-31T19:20:55.963Z,12.20
2018-01-31T19:23:24.207Z,12.20
2018-01-31T19:25:51.737Z,12.20
2018-01-31T19:28:19.229Z,12.20
2018-01-31T19:30:46.736Z,12.20
2018-01-31T19:33:14.212Z,12.20
2018-01-31T19:35:41.696Z,12.10
2018-01-31T19:38:09.209Z,12.10
2018-01-31T19:40:36.739Z,12.10
2018-01-31T19:43:05.059Z,12.00
2018-01-31T19:45:33.320Z,12.00
2018-01-31T19:48:00.855Z,12.00
2018-01-31T19:50:29.360Z,11.90
2018-01-31T19:52:56.851Z,11.90
2018-01-31T19:55:24.325Z,11.90
2018-01-31T19:57:52.565Z,11.70
2018-01-31T20:00:20.061Z,11.70
2018-01-31T20:02:47.901Z,11.70
2018-01-31T20:05:16.183Z,11.60
2018-01-31T20:07:43.638Z,11.40
2018-01-31T20:10:11.168Z,11.50
2018-01-31T20:12:39.412Z,11.40
2018-01-31T20:15:06.909Z,11.30
2018-01-31T20:17:34.413Z,11.30
2018-01-31T20:20:01.902Z,11.40
2018-01-31T20:22:29.371Z,11.30
2018-01-31T20:24:56.858Z,11.40
2018-01-31T20:27:24.347Z,11.40
2018-01-31T20:29:51.825Z,11.40
2018-01-31T20:32:19.313Z,11.40
2018-01-31T20:34:46.807Z,11.40
2018-01-31T20:37:14.287Z,11.40
2018-01-31T20:39:41.754Z,11.40
2018-01-31T20:42:09.579Z,11.40
2018-01-31T20:44:37.813Z,11.30
2018-01-31T20:47:05.288Z,11.30
2018-01-31T20:49:32.742Z,11.20
2018-01-31T20:52:00.262Z,11.20
2018-01-31T20:54:29.659Z,11.10
2018-01-31T20:56:57.928Z,11.00
2018-01-31T20:59:25.451Z,11.00
2018-01-31T21:01:52.955Z,11.00
2018-01-31T21:04:21.187Z,11.10
2018-01-31T21:06:48.664Z,11.10
2018-01-31T21:09:16.328Z,11.10
2018-01-31T21:11:44.629Z,11.00
2018-01-31T21:14:12.862Z,11.00
2018-01-31T21:16:40.352Z,11.00
2018-01-31T21:19:07.838Z,11.00
2018-01-31T21:21:35.514Z,11.00
2018-01-31T21:24:03.036Z,10.90
2018-01-31T21:26:30.501Z,10.80
2018-01-31T21:28:57.979Z,10.70
2018-01-31T21:31:25.486Z,10.60
2018-01-31T21:33:52.952Z,10.60
2018-01-31T21:36:20.439Z,10.50
2018-01-31T21:38:47.918Z,10.40
2018-01-31T21:41:15.575Z,10.30
2018-01-31T21:43:43.041Z,10.30
2018-01-31T21:46:10.554Z,10.30
2018-01-31T21:48:38.062Z,10.30
2018-01-31T21:51:05.542Z,10.20
2018-01-31T21:53:33.044Z,10.20
2018-01-31T21:56:01.293Z,10.10
2018-01-31T21:58:28.746Z,10.10
2018-01-31T22:00:57.002Z,10.00
2018-01-31T22:03:24.483Z,10.00
2018-01-31T22:05:51.947Z,10.00
2018-01-31T22:08:19.443Z,9.90
2018-01-31T22:10:46.968Z,10.00
2018-01-31T22:13:15.191Z,9.90
2018-01-31T22:15:43.436Z,9.90
2018-01-31T22:18:10.924Z,9.90
2018-01-31T22:20:38.397Z,9.90
2018-01-31T22:23:05.883Z,9.80
2018-01-31T22:25:33.666Z,9.80
2018-01-31T22:28:01.132Z,9.70
2018-01-31T22:30:28.669Z,9.70
2018-01-31T22:32:56.923Z,9.60
2018-01-31T22:35:24.365Z,9.60
2018-01-31T22:37:56.085Z,9.40
2018-01-31T22:40:23.598Z,9.60
2018-01-31T22:42:51.102Z,9.60
2018-01-31T22:45:19.368Z,9.60
2018-01-31T22:47:46.944Z,9.60
2018-01-31T22:50:15.177Z,9.50
2018-01-31T22:52:42.644Z,9.50
2018-01-31T22:55:10.171Z,9.50
2018-01-31T22:57:37.658Z,9.50
2018-01-31T23:00:05.146Z,9.50
2018-01-31T23:02:32.673Z,9.50
2018-01-31T23:05:00.180Z,9.50
2018-01-31T23:07:28.524Z,9.60
2018-01-31T23:09:56.958Z,9.70
2018-01-31T23:12:24.447Z,9.70
2018-01-31T23:14:53.503Z,9.80
2018-01-31T23:17:27.540Z,9.80
2018-01-31T23:19:55.908Z,9.80
2018-01-31T23:22:23.421Z,9.80
2018-01-31T23:24:51.666Z,9.90
2018-01-31T23:27:19.139Z,9.80
2018-01-31T23:29:46.626Z,9.90
2018-01-31T23:32:14.089Z,9.90
2018-01-31T23:34:41.591Z,9.90
2018-01-31T23:37:09.107Z,9.80
2018-01-31T23:39:36.669Z,9.70
2018-01-31T23:42:04.151Z,9.80
2018-01-31T23:44:31.638Z,9.80
2018-01-31T23:46:59.106Z,9.80
2018-01-31T23:49:26.593Z,9.80
2018-01-31T23:51:54.841Z,9.90
2018-01-31T23:54:23.102Z,10.00
2018-01-31T23:56:50.568Z,10.00
2018-01-31T23:59:18.053Z,9.90
